Arapaho, Oklahoma
Current Conditions -  °F | °C
As of 1:35 AM on Thursday 18 Dec 2014 (Local Time) from KCLK Reporting Station
Drizzle Drizzle  
Wind Chill: 33°   Ceiling: 200
Heat Index: 37°   Visibility: 0.75mi
Dew Point: 36°   Wind: 6mph
Humidity: 93%   Direction: 150°SSE
Pressure: 30.09"   Gusts: NA
Location:  35.58°N, 98.96°W
Report Text: KCLK 180735Z AUTO 15005KT 3/4SM DZ OVC002 03/02 A3009 RMK AO2
Loading
Personal Weather Stations






























Interactive Weather Map New forecast layout! Learn more

10-Day Weather Forecast

Advertisements
Track Severe Weather on mobile